Time;durP1;ratioP1;P1;durP2;ratioP2;P2;SDS_P1;SDS_P2;PMS_P1;PMS_P2;Temp;Humidity;BMP_temperature;BMP_pressure;BME280_temperature;BME280_humidity;BME280_pressure;Samples;Min_cycle;Max_cycle;Signal;HPM_P1;HPM_P2
2023/08/19 00:01:22;;;;;;;11.80;10.40;;;24.60;96.70;;;;;;5032186;28;20045;-65
2023/08/19 00:03:48;;;;;;;11.07;10.02;;;24.40;96.70;;;;;;5050012;28;20044;-68
2023/08/19 00:06:34;;;;;;;11.40;10.20;;;24.40;96.70;;;;;;5048890;28;20045;-64
2023/08/19 00:09:01;;;;;;;11.77;10.50;;;24.30;97.00;;;;;;5047025;28;20107;-65
2023/08/19 00:11:27;;;;;;;12.18;10.20;;;24.50;96.70;;;;;;5047908;28;20077;-64
2023/08/19 00:13:53;;;;;;;11.52;10.40;;;24.50;96.60;;;;;;5048028;28;20034;-69
2023/08/19 00:16:19;;;;;;;12.00;10.80;;;25.60;97.00;;;;;;5029474;28;20053;-68
2023/08/19 00:18:45;;;;;;;12.23;11.00;;;24.40;98.10;;;;;;5046668;28;20549;-65
2023/08/19 00:21:11;;;;;;;11.57;10.43;;;24.50;96.80;;;;;;5045074;28;20169;-65
2023/08/19 00:23:37;;;;;;;11.45;10.35;;;24.40;97.10;;;;;;5050261;28;20395;-66
2023/08/19 00:26:03;;;;;;;11.95;10.70;;;24.40;96.60;;;;;;5041534;28;20104;-65
2023/08/19 00:28:29;;;;;;;12.05;10.80;;;24.60;96.80;;;;;;5025052;28;20088;-68
2023/08/19 00:30:54;;;;;;;12.02;10.82;;;24.70;96.80;;;;;;5057327;28;20077;-64
2023/08/19 00:33:23;;;;;;;11.50;10.32;;;24.30;96.80;;;;;;5046581;28;20083;-72
2023/08/19 00:35:51;;;;;;;11.93;10.73;;;24.40;96.80;;;;;;5043290;28;20193;-71
2023/08/19 00:38:17;;;;;;;12.98;11.23;;;24.20;96.80;;;;;;5050549;28;20036;-65
2023/08/19 00:40:43;;;;;;;12.07;10.88;;;24.40;96.80;;;;;;5028736;28;20552;-69
2023/08/19 00:43:09;;;;;;;12.88;11.00;;;24.40;96.80;;;;;;5035338;28;20064;-66
2023/08/19 00:45:40;;;;;;;11.48;10.27;;;24.50;96.90;;;;;;5051355;28;20127;-69
2023/08/19 00:48:06;;;;;;;11.68;10.48;;;24.60;97.10;;;;;;5055280;28;20123;-67
2023/08/19 00:50:32;;;;;;;11.73;10.55;;;24.30;96.70;;;;;;5055168;28;20459;-66
2023/08/19 00:52:57;;;;;;;11.65;10.55;;;24.40;98.10;;;;;;5035136;28;20052;-67
2023/08/19 00:55:23;;;;;;;11.77;10.57;;;24.30;96.80;;;;;;5042913;28;20506;-65
2023/08/19 00:57:49;;;;;;;10.73;9.63;;;24.40;96.70;;;;;;5025665;28;20449;-65
2023/08/19 01:00:15;;;;;;;11.85;10.43;;;24.50;96.70;;;;;;5018195;28;20049;-63
2023/08/19 01:02:41;;;;;;;10.75;9.65;;;24.20;96.60;;;;;;5035054;28;20064;-72
2023/08/19 01:05:08;;;;;;;12.15;10.95;;;24.30;96.70;;;;;;5052767;28;20041;-67
2023/08/19 01:08:09;;;;;;;12.88;10.20;;;24.50;96.50;;;;;;5048901;28;20391;-63
2023/08/19 01:10:38;;;;;;;11.38;10.25;;;24.50;96.90;;;;;;4959235;28;20054;-66
2023/08/19 01:13:11;;;;;;;11.90;10.77;;;24.30;96.70;;;;;;4969908;28;20085;-65
2023/08/19 01:15:40;;;;;;;10.85;9.75;;;24.20;96.70;;;;;;4957396;28;20043;-67
2023/08/19 01:18:06;;;;;;;11.80;10.40;;;24.30;96.70;;;;;;4959948;28;20157;-72
2023/08/19 01:20:31;;;;;;;11.13;10.02;;;24.40;96.60;;;;;;4954739;28;20093;-72
2023/08/19 01:23:03;;;;;;;11.25;10.15;;;24.40;96.60;;;;;;4968848;28;20057;-75
2023/08/19 01:25:29;;;;;;;11.48;10.35;;;24.40;96.00;;;;;;4969383;28;20047;-67
2023/08/19 01:27:55;;;;;;;11.10;10.00;;;24.20;96.50;;;;;;4968736;28;20046;-74
2023/08/19 01:30:21;;;;;;;11.80;10.15;;;24.50;96.50;;;;;;4962447;28;20055;-76
2023/08/19 01:32:46;;;;;;;12.50;10.25;;;24.40;98.00;;;;;;4944522;28;20091;-64
2023/08/19 01:35:13;;;;;;;11.35;10.15;;;24.50;96.50;;;;;;4961544;28;20042;-74
2023/08/19 01:37:43;;;;;;;11.15;10.05;;;24.40;96.50;;;;;;4951559;28;20442;-72
2023/08/19 01:40:11;;;;;;;11.95;10.20;;;24.60;96.00;;;;;;4952715;28;20039;-71
2023/08/19 01:42:37;;;;;;;11.23;10.02;;;24.40;96.60;;;;;;4952745;28;20054;-68
2023/08/19 01:45:03;;;;;;;11.20;10.05;;;24.20;96.40;;;;;;4995777;28;20110;-68
2023/08/19 01:47:29;;;;;;;11.65;10.48;;;24.30;96.40;;;;;;4999621;28;20041;-66
2023/08/19 01:49:55;;;;;;;11.65;10.45;;;24.50;96.50;;;;;;5046032;28;20048;-69
2023/08/19 01:52:21;;;;;;;12.57;11.07;;;24.20;96.30;;;;;;5048265;28;20041;-66
2023/08/19 01:54:46;;;;;;;11.02;9.85;;;24.50;96.50;;;;;;5025857;28;20045;-75
2023/08/19 01:57:12;;;;;;;11.25;10.15;;;24.60;96.50;;;;;;5030950;28;20402;-71
2023/08/19 01:59:38;;;;;;;11.30;10.20;;;24.10;96.30;;;;;;5042806;28;20052;-71
2023/08/19 02:02:04;;;;;;;10.88;9.75;;;24.20;96.30;;;;;;5032464;28;20059;-67
2023/08/19 02:04:30;;;;;;;11.80;10.18;;;24.30;96.30;;;;;;5031008;28;20045;-71
2023/08/19 02:06:55;;;;;;;12.45;11.15;;;24.20;96.40;;;;;;5032343;28;20503;-73
2023/08/19 02:09:21;;;;;;;12.55;10.35;;;24.30;96.40;;;;;;5042939;28;20041;-71
2023/08/19 02:11:47;;;;;;;11.40;10.30;;;24.40;96.40;;;;;;5032775;28;20049;-73
2023/08/19 02:14:13;;;;;;;11.82;10.73;;;24.10;96.30;;;;;;5037232;28;20048;-68
2023/08/19 02:16:39;;;;;;;12.68;10.35;;;24.30;96.40;;;;;;5038963;28;20479;-68
2023/08/19 02:19:04;;;;;;;11.88;10.73;;;24.20;96.40;;;;;;5046497;28;20127;-73
2023/08/19 02:21:30;;;;;;;12.35;11.02;;;24.40;96.40;;;;;;5022592;28;20080;-70
2023/08/19 02:23:56;;;;;;;12.65;10.88;;;24.30;96.30;;;;;;5051601;28;20087;-70
2023/08/19 02:26:22;;;;;;;11.32;10.20;;;24.10;96.30;;;;;;5048986;28;20056;-72
2023/08/19 02:28:47;;;;;;;12.18;10.85;;;24.30;96.40;;;;;;5049594;28;20045;-67
2023/08/19 02:31:13;;;;;;;12.73;11.38;;;24.20;96.30;;;;;;5034392;28;20360;-73
2023/08/19 02:33:41;;;;;;;12.35;10.98;;;24.20;96.20;;;;;;5050265;28;20072;-66
2023/08/19 02:36:07;;;;;;;13.10;11.05;;;24.10;96.30;;;;;;5045416;28;20044;-67
2023/08/19 02:38:32;;;;;;;11.98;10.77;;;24.20;96.30;;;;;;5032910;28;20379;-64
2023/08/19 02:40:58;;;;;;;12.70;10.60;;;24.10;96.30;;;;;;5052660;28;20094;-68
2023/08/19 02:43:24;;;;;;;12.65;10.13;;;24.30;96.40;;;;;;5075365;28;20041;-74
2023/08/19 02:45:50;;;;;;;14.38;11.27;;;24.20;96.30;;;;;;5057288;28;20060;-76
2023/08/19 02:48:16;;;;;;;13.10;11.70;;;24.20;96.40;;;;;;5052925;28;20049;-74
2023/08/19 02:50:42;;;;;;;11.82;10.52;;;24.20;96.30;;;;;;5034776;28;20044;-72
2023/08/19 02:53:08;;;;;;;12.93;10.98;;;24.30;96.50;;;;;;5075321;28;20126;-69
2023/08/19 02:55:33;;;;;;;12.10;10.90;;;24.40;96.50;;;;;;5055555;28;20485;-66
2023/08/19 02:58:02;;;;;;;12.38;11.18;;;24.10;96.40;;;;;;5050389;28;20052;-69
2023/08/19 03:00:28;;;;;;;12.95;11.05;;;24.20;96.30;;;;;;5037231;28;20049;-71
2023/08/19 03:02:53;;;;;;;13.07;11.70;;;24.10;96.40;;;;;;5067853;28;20063;-73
2023/08/19 03:05:20;;;;;;;12.30;10.98;;;24.10;96.40;;;;;;5075084;28;20044;-65
2023/08/19 03:07:45;;;;;;;13.13;11.77;;;24.10;96.50;;;;;;5056663;28;20054;-66
2023/08/19 03:10:11;;;;;;;11.68;10.57;;;24.30;96.40;;;;;;5069399;28;20048;-65
2023/08/19 03:12:37;;;;;;;13.15;11.82;;;24.10;96.40;;;;;;5049485;28;20037;-68
2023/08/19 03:15:03;;;;;;;14.27;11.85;;;24.40;96.50;;;;;;5042222;28;20047;-69
2023/08/19 03:17:29;;;;;;;12.10;11.00;;;24.10;96.20;;;;;;5055393;28;20049;-68
2023/08/19 03:19:54;;;;;;;13.27;12.07;;;24.00;96.40;;;;;;5053447;28;20124;-68
2023/08/19 03:22:20;;;;;;;12.55;11.20;;;24.10;96.40;;;;;;5053833;28;20376;-70
2023/08/19 03:24:46;;;;;;;12.57;10.63;;;24.10;96.40;;;;;;5046605;28;20132;-67
2023/08/19 03:27:12;;;;;;;13.75;12.32;;;24.10;96.40;;;;;;5053146;28;20048;-73
2023/08/19 03:29:37;;;;;;;13.25;11.43;;;24.20;96.40;;;;;;5046969;28;20055;-70
2023/08/19 03:32:03;;;;;;;12.23;11.07;;;24.10;96.40;;;;;;5044262;28;20045;-69
2023/08/19 03:34:29;;;;;;;12.40;10.93;;;23.90;96.50;;;;;;5047001;28;20041;-66
2023/08/19 03:36:55;;;;;;;12.68;11.38;;;24.00;96.40;;;;;;5047776;28;20056;-66
2023/08/19 03:39:20;;;;;;;12.95;11.63;;;24.10;96.40;;;;;;5042389;28;20452;-67
2023/08/19 03:41:46;;;;;;;13.10;11.68;;;24.10;96.40;;;;;;5023500;28;20060;-74
2023/08/19 03:44:12;;;;;;;12.68;11.55;;;24.20;96.40;;;;;;5056297;28;20042;-66
2023/08/19 03:46:38;;;;;;;13.50;11.77;;;23.90;96.40;;;;;;5039155;28;20041;-65
2023/08/19 03:49:04;;;;;;;13.77;11.60;;;24.20;96.50;;;;;;5027829;28;20501;-65
2023/08/19 03:51:30;;;;;;;13.43;12.02;;;24.30;96.50;;;;;;5033244;28;20147;-68
2023/08/19 03:53:56;;;;;;;13.18;11.80;;;24.00;96.40;;;;;;5010886;28;20175;-68
2023/08/19 03:56:22;;;;;;;12.65;11.43;;;24.10;96.50;;;;;;5032766;28;20127;-66
2023/08/19 03:58:47;;;;;;;11.77;10.57;;;24.10;96.30;;;;;;5033398;28;20052;-67
2023/08/19 04:01:13;;;;;;;15.02;12.25;;;24.00;96.40;;;;;;5032438;28;20036;-63
2023/08/19 04:03:39;;;;;;;12.85;11.65;;;24.20;96.40;;;;;;5047359;28;20045;-76
2023/08/19 04:06:05;;;;;;;13.75;12.10;;;24.20;96.40;;;;;;5031352;28;20063;-65
2023/08/19 04:08:31;;;;;;;13.75;12.23;;;24.10;96.40;;;;;;5049932;28;20045;-68
2023/08/19 04:11:14;;;;;;;13.68;12.27;;;24.30;96.50;;;;;;5046792;28;20528;-66
2023/08/19 04:13:40;;;;;;;13.13;11.82;;;24.00;96.50;;;;;;5045527;28;20040;-72
2023/08/19 04:16:06;;;;;;;14.52;12.70;;;24.10;96.40;;;;;;5047468;28;20037;-65
2023/08/19 04:18:33;;;;;;;13.70;12.38;;;24.00;96.40;;;;;;5050505;28;20063;-68
2023/08/19 04:21:05;;;;;;;13.32;11.95;;;23.90;97.60;;;;;;5005020;28;20049;-68
2023/08/19 04:23:32;;;;;;;15.90;11.63;;;24.20;96.60;;;;;;5046653;28;20045;-71
2023/08/19 04:25:57;;;;;;;12.85;11.55;;;24.10;96.50;;;;;;5030830;28;20475;-69
2023/08/19 04:28:23;;;;;;;14.07;12.68;;;24.40;98.00;;;;;;5029029;28;20055;-66
2023/08/19 04:30:49;;;;;;;15.07;12.18;;;24.20;96.40;;;;;;5046669;28;20055;-67
2023/08/19 04:33:15;;;;;;;13.32;12.02;;;24.00;96.40;;;;;;5047729;28;20045;-69
2023/08/19 04:35:41;;;;;;;13.27;11.98;;;24.00;96.40;;;;;;5012453;28;20040;-65
2023/08/19 04:38:06;;;;;;;13.15;11.60;;;24.00;96.50;;;;;;5048017;28;20113;-65
2023/08/19 04:40:32;;;;;;;14.43;12.30;;;24.00;96.50;;;;;;5031628;28;20052;-64
2023/08/19 04:42:58;;;;;;;12.90;11.70;;;24.10;96.50;;;;;;5021752;28;20047;-67
2023/08/19 04:45:24;;;;;;;13.52;12.13;;;23.90;96.40;;;;;;5068075;28;20050;-70
2023/08/19 04:47:50;;;;;;;13.27;12.00;;;24.20;96.50;;;;;;5072670;28;20055;-65
2023/08/19 04:50:16;;;;;;;13.32;11.85;;;24.00;96.50;;;;;;5047175;28;20052;-67
2023/08/19 04:52:42;;;;;;;13.07;11.77;;;24.20;96.40;;;;;;5071164;28;20071;-66
2023/08/19 04:55:08;;;;;;;12.20;10.90;;;24.30;96.50;;;;;;5062938;28;20040;-63
2023/08/19 04:57:34;;;;;;;12.38;11.18;;;24.20;96.30;;;;;;5052552;28;20560;-67
2023/08/19 05:00:00;;;;;;;13.15;11.70;;;24.10;96.30;;;;;;5032892;28;20120;-67
2023/08/19 05:02:25;;;;;;;12.88;11.63;;;24.20;96.30;;;;;;5055395;28;20406;-62
2023/08/19 05:04:51;;;;;;;13.18;11.18;;;24.00;96.20;;;;;;5056932;28;20099;-65
2023/08/19 05:07:17;;;;;;;13.77;12.48;;;24.30;96.20;;;;;;5066861;28;20112;-65
2023/08/19 05:09:43;;;;;;;12.98;11.70;;;24.40;96.30;;;;;;5054015;28;20037;-64
2023/08/19 05:12:08;;;;;;;12.60;11.30;;;24.40;96.20;;;;;;5048657;28;20048;-67
2023/08/19 05:14:34;;;;;;;12.55;11.25;;;24.30;96.10;;;;;;5044483;28;20039;-65
2023/08/19 05:17:00;;;;;;;12.90;11.60;;;24.50;96.10;;;;;;5050450;28;20033;-65
2023/08/19 05:19:26;;;;;;;12.38;11.18;;;24.70;96.20;;;;;;5063921;28;20072;-65
2023/08/19 05:21:51;;;;;;;13.40;10.73;;;24.40;96.10;;;;;;5044926;28;20040;-64
2023/08/19 05:24:18;;;;;;;12.73;10.18;;;24.50;96.10;;;;;;5044815;28;20059;-64
2023/08/19 05:26:44;;;;;;;11.35;10.25;;;22.20;95.30;;;;;;5030568;28;20049;-74
2023/08/19 05:29:14;;;;;;;11.30;10.20;;;24.60;95.80;;;;;;5035754;28;20099;-68
2023/08/19 05:31:40;;;;;;;10.90;9.80;;;24.50;95.70;;;;;;5025858;28;20040;-66
2023/08/19 05:34:09;;;;;;;11.40;10.23;;;24.90;95.50;;;;;;5044549;28;20686;-64
2023/08/19 05:36:35;;;;;;;10.93;9.82;;;24.80;95.50;;;;;;5031454;28;20120;-64
2023/08/19 05:39:00;;;;;;;11.82;10.63;;;24.80;95.30;;;;;;5029372;28;20124;-64
2023/08/19 05:41:27;;;;;;;12.05;10.85;;;25.00;95.20;;;;;;5023328;28;20045;-64
2023/08/19 05:43:52;;;;;;;12.05;10.85;;;25.10;95.20;;;;;;5027658;28;20080;-71
2023/08/19 05:46:18;;;;;;;12.23;10.88;;;24.80;95.00;;;;;;5041630;28;20084;-65
2023/08/19 05:48:44;;;;;;;10.90;9.80;;;25.30;95.10;;;;;;5045224;28;20102;-67
2023/08/19 05:51:10;;;;;;;10.75;9.65;;;24.90;94.90;;;;;;5048046;28;20570;-66
2023/08/19 05:53:36;;;;;;;11.00;9.90;;;25.00;94.80;;;;;;5044639;28;20056;-70
2023/08/19 05:56:02;;;;;;;10.65;9.60;;;25.00;94.80;;;;;;5049154;28;20044;-68
2023/08/19 05:58:27;;;;;;;10.55;9.55;;;25.10;94.70;;;;;;5056739;28;20067;-69
2023/08/19 06:00:59;;;;;;;11.45;10.02;;;25.20;94.70;;;;;;5049490;28;20040;-68
2023/08/19 06:03:25;;;;;;;11.00;9.65;;;25.00;94.70;;;;;;5027756;28;20053;-69
2023/08/19 06:05:51;;;;;;;12.00;9.80;;;25.20;94.60;;;;;;5046247;28;20047;-67
2023/08/19 06:08:17;;;;;;;11.68;10.48;;;25.40;94.60;;;;;;5057219;28;20182;-65
2023/08/19 06:10:46;;;;;;;10.75;9.65;;;25.20;94.50;;;;;;5032697;28;20487;-64
2023/08/19 06:13:12;;;;;;;10.48;9.48;;;25.10;94.00;;;;;;5029388;28;20371;-66
2023/08/19 06:15:38;;;;;;;11.02;9.75;;;25.40;94.30;;;;;;5015800;28;20076;-67
2023/08/19 06:18:04;;;;;;;10.45;9.45;;;25.20;94.40;;;;;;5014799;28;20048;-64
2023/08/19 06:20:30;;;;;;;11.98;10.70;;;25.30;94.30;;;;;;5029741;28;20049;-63
2023/08/19 06:22:56;;;;;;;10.70;9.68;;;25.10;94.30;;;;;;5029139;28;20051;-64
2023/08/19 06:25:21;;;;;;;12.57;10.10;;;25.50;94.40;;;;;;5025110;28;20057;-74
2023/08/19 06:27:47;;;;;;;10.68;9.57;;;25.40;94.30;;;;;;5047768;28;20053;-66
2023/08/19 06:30:13;;;;;;;10.52;9.45;;;25.40;94.30;;;;;;5045450;28;21333;-70
2023/08/19 06:32:39;;;;;;;11.25;10.15;;;25.20;94.30;;;;;;5049015;28;20151;-70
2023/08/19 06:35:06;;;;;;;10.73;9.45;;;25.20;94.10;;;;;;5030376;28;20053;-74
2023/08/19 06:37:34;;;;;;;10.50;9.50;;;25.50;94.10;;;;;;5050144;28;20044;-64
2023/08/19 06:40:09;;;;;;;10.82;9.73;;;25.50;94.30;;;;;;5029394;28;20251;-70
2023/08/19 06:42:38;;;;;;;11.40;9.73;;;25.50;94.20;;;;;;5029166;28;20049;-66
2023/08/19 06:45:06;;;;;;;10.70;9.68;;;25.30;94.30;;;;;;5034728;28;20041;-71
2023/08/19 06:47:32;;;;;;;11.48;9.55;;;25.50;94.00;;;;;;5020066;28;20052;-63
2023/08/19 06:49:58;;;;;;;15.85;12.27;;;25.60;94.20;;;;;;5034343;28;20083;-64
2023/08/19 06:52:24;;;;;;;14.38;12.88;;;25.80;94.60;;;;;;5031886;28;20051;-74
2023/08/19 06:54:51;;;;;;;14.80;13.23;;;25.50;94.90;;;;;;5030175;28;20044;-63
2023/08/19 06:57:38;;;;;;;13.18;11.75;;;25.40;95.00;;;;;;5018689;28;20056;-70
2023/08/19 07:00:11;;;;;;;14.07;12.70;;;25.40;95.40;;;;;;5067016;28;20479;-69
2023/08/19 07:02:37;;;;;;;14.93;13.32;;;25.30;95.70;;;;;;5050521;28;20044;-69
2023/08/19 07:05:13;;;;;;;13.98;12.40;;;25.10;95.50;;;;;;5036459;28;20406;-68
2023/08/19 07:07:42;;;;;;;13.10;11.73;;;25.70;97.50;;;;;;5033398;28;20125;-77
2023/08/19 07:10:09;;;;;;;13.57;11.75;;;25.20;95.80;;;;;;5036363;28;20056;-72
2023/08/19 07:12:35;;;;;;;13.05;10.68;;;25.20;95.50;;;;;;5051621;28;20517;-76
2023/08/19 07:15:01;;;;;;;13.70;12.20;;;25.40;95.70;;;;;;5013983;28;20040;-75
2023/08/19 07:17:27;;;;;;;13.68;12.05;;;25.20;95.70;;;;;;5053774;28;20045;-79
2023/08/19 07:19:53;;;;;;;13.10;11.65;;;25.20;96.00;;;;;;5033274;28;20386;-64
2023/08/19 07:22:20;;;;;;;13.60;11.60;;;25.00;96.10;;;;;;5053953;28;20045;-63
2023/08/19 07:24:47;;;;;;;13.23;11.85;;;25.20;96.40;;;;;;5050855;28;20053;-67
2023/08/19 07:27:13;;;;;;;14.15;12.45;;;25.40;96.40;;;;;;5068880;28;20053;-65
2023/08/19 07:29:38;;;;;;;14.52;13.00;;;25.10;96.40;;;;;;5002151;28;20051;-72
2023/08/19 07:32:05;;;;;;;14.90;12.35;;;24.90;96.80;;;;;;5035545;28;20045;-67
2023/08/19 07:34:31;;;;;;;15.13;12.45;;;25.10;97.10;;;;;;5050673;28;20463;-65
2023/08/19 07:36:56;;;;;;;13.25;11.52;;;25.10;97.10;;;;;;5043478;28;20124;-64
2023/08/19 07:39:23;;;;;;;13.10;11.75;;;24.80;97.20;;;;;;5051759;28;20044;-78
2023/08/19 07:41:49;;;;;;;14.82;12.23;;;24.90;97.70;;;;;;5034641;28;20111;-63
2023/08/19 07:44:14;;;;;;;13.77;12.38;;;24.80;97.50;;;;;;5066895;28;20043;-63
2023/08/19 07:46:40;;;;;;;14.35;12.48;;;24.80;97.60;;;;;;5037966;28;20075;-63
2023/08/19 07:49:06;;;;;;;13.05;11.63;;;24.80;97.80;;;;;;5045171;28;20049;-64
2023/08/19 07:51:32;;;;;;;12.85;11.55;;;25.10;98.00;;;;;;5022922;28;20071;-70
2023/08/19 07:53:58;;;;;;;13.32;11.93;;;25.20;98.20;;;;;;5084295;28;20135;-62
2023/08/19 07:56:24;;;;;;;16.63;12.07;;;24.60;98.10;;;;;;5064286;28;20030;-64
2023/08/19 07:58:49;;;;;;;12.35;11.15;;;24.90;98.20;;;;;;5047998;28;20075;-62
2023/08/19 08:01:16;;;;;;;13.95;12.55;;;24.70;98.10;;;;;;5049206;28;20044;-67
2023/08/19 08:03:42;;;;;;;13.23;11.82;;;24.60;98.30;;;;;;5011748;28;20044;-64
2023/08/19 08:06:07;;;;;;;12.40;11.20;;;24.80;98.20;;;;;;5052734;28;20037;-68
2023/08/19 08:08:33;;;;;;;14.85;11.98;;;24.60;98.20;;;;;;5049128;28;20094;-64
2023/08/19 08:10:59;;;;;;;13.43;11.68;;;24.90;98.30;;;;;;5050421;28;20098;-65
2023/08/19 08:13:25;;;;;;;14.38;12.88;;;24.80;98.30;;;;;;5047078;28;20067;-71
2023/08/19 08:15:52;;;;;;;13.90;12.50;;;24.80;98.30;;;;;;5063685;28;20041;-71
2023/08/19 08:18:18;;;;;;;15.55;12.45;;;25.00;98.50;;;;;;5050364;28;20041;-74
2023/08/19 08:20:44;;;;;;;13.75;12.32;;;24.80;98.50;;;;;;5048184;28;20041;-65
2023/08/19 08:23:10;;;;;;;13.93;12.52;;;24.80;98.60;;;;;;5051212;28;20136;-63
2023/08/19 08:25:37;;;;;;;13.88;12.25;;;24.80;98.60;;;;;;5050025;28;20530;-64
2023/08/19 08:28:03;;;;;;;14.27;12.43;;;25.20;98.80;;;;;;5027638;28;20057;-66
2023/08/19 08:30:29;;;;;;;13.98;12.15;;;25.00;98.60;;;;;;5030214;28;20197;-65
2023/08/19 08:32:55;;;;;;;14.27;12.00;;;24.80;98.60;;;;;;5049196;28;20040;-65
2023/08/19 08:35:20;;;;;;;12.38;11.18;;;24.90;98.40;;;;;;5050517;28;20049;-64
2023/08/19 08:37:46;;;;;;;14.15;11.18;;;25.00;98.40;;;;;;5050931;28;20043;-63
2023/08/19 08:40:12;;;;;;;12.80;11.38;;;25.00;98.40;;;;;;5044652;28;20037;-73
2023/08/19 08:42:38;;;;;;;13.32;10.75;;;25.40;98.50;;;;;;5051579;28;20406;-63
2023/08/19 08:45:05;;;;;;;12.68;11.35;;;25.30;98.40;;;;;;5033513;28;20045;-66
2023/08/19 08:47:30;;;;;;;13.05;11.15;;;25.40;98.10;;;;;;5049826;28;20044;-63
2023/08/19 08:49:56;;;;;;;13.48;11.10;;;25.30;98.20;;;;;;5050755;28;20398;-78
2023/08/19 08:52:22;;;;;;;12.18;10.88;;;25.40;98.10;;;;;;5029964;28;20145;-64
2023/08/19 08:54:53;;;;;;;12.50;10.95;;;25.20;98.00;;;;;;5031175;28;20048;-65
2023/08/19 08:57:19;;;;;;;16.25;11.50;;;25.30;98.10;;;;;;5031535;28;20099;-65
2023/08/19 08:59:45;;;;;;;13.40;10.38;;;25.30;97.90;;;;;;5049488;28;20049;-63
2023/08/19 09:02:14;;;;;;;10.95;9.38;;;25.50;97.90;;;;;;5030634;28;20057;-69
2023/08/19 09:04:40;;;;;;;11.85;9.73;;;25.50;97.80;;;;;;5032652;28;20081;-63
2023/08/19 09:07:12;;;;;;;12.40;9.75;;;25.70;97.70;;;;;;5031212;28;20402;-65
2023/08/19 09:09:40;;;;;;;11.32;9.63;;;25.30;97.60;;;;;;5044895;28;20053;-64
2023/08/19 09:12:10;;;;;;;10.85;9.75;;;25.40;97.40;;;;;;5050744;28;20033;-63
2023/08/19 09:14:45;;;;;;;13.95;10.15;;;25.70;97.50;;;;;;5029844;28;20045;-63
2023/08/19 09:17:14;;;;;;;12.15;9.35;;;25.60;97.00;;;;;;5028266;28;20120;-71
2023/08/19 09:19:40;;;;;;;12.77;9.85;;;25.50;97.10;;;;;;5032719;28;20123;-63
2023/08/19 09:22:19;;;;;;;11.80;9.27;;;25.60;97.40;;;;;;4986059;28;20050;-65
2023/08/19 09:24:45;;;;;;;11.10;8.95;;;25.60;96.80;;;;;;5009682;28;20077;-64
2023/08/19 09:27:11;;;;;;;12.38;8.75;;;25.60;97.20;;;;;;5020258;28;20408;-65
2023/08/19 09:29:38;;;;;;;11.60;8.77;;;25.80;97.20;;;;;;5032137;28;20052;-66
2023/08/19 09:32:04;;;;;;;9.98;8.10;;;25.70;97.10;;;;;;5013707;28;20052;-64
2023/08/19 09:34:32;;;;;;;13.25;8.68;;;25.80;96.80;;;;;;5043948;28;20045;-66
2023/08/19 09:36:58;;;;;;;12.55;8.95;;;26.10;96.70;;;;;;5035496;28;20068;-67
2023/08/19 09:39:33;;;;;;;10.25;8.30;;;26.00;96.70;;;;;;5050545;28;20053;-64
2023/08/19 09:41:59;;;;;;;11.15;7.88;;;25.90;95.90;;;;;;5026588;28;20041;-67
2023/08/19 09:44:29;;;;;;;9.27;7.25;;;26.20;96.30;;;;;;5042570;28;20060;-64
2023/08/19 09:46:56;;;;;;;9.57;7.45;;;26.10;96.20;;;;;;5022227;28;20514;-64
2023/08/19 09:49:22;;;;;;;9.70;7.40;;;26.30;96.00;;;;;;5028312;28;20321;-64
2023/08/19 09:51:57;;;;;;;10.30;7.40;;;26.30;95.70;;;;;;5021409;28;20046;-65
2023/08/19 09:54:24;;;;;;;12.48;6.53;;;26.40;95.50;;;;;;5031808;28;20060;-71
2023/08/19 09:56:56;;;;;;;12.02;7.50;;;26.40;95.30;;;;;;5007511;28;20044;-73
2023/08/19 09:59:23;;;;;;;8.98;6.90;;;26.60;94.80;;;;;;5051105;28;20052;-74
2023/08/19 10:01:51;;;;;;;8.63;7.63;;;26.40;95.30;;;;;;5050626;28;20040;-74
2023/08/19 10:04:18;;;;;;;15.18;7.75;;;26.40;95.20;;;;;;5057993;28;20075;-64
2023/08/19 10:07:05;;;;;;;9.52;7.25;;;26.30;95.10;;;;;;4997638;28;20482;-75
2023/08/19 10:09:31;;;;;;;10.32;7.68;;;26.50;95.10;;;;;;5014713;28;20108;-74
2023/08/19 10:11:58;;;;;;;9.93;7.47;;;26.60;95.20;;;;;;5010913;28;20045;-68
2023/08/19 10:14:31;;;;;;;10.80;7.28;;;26.40;95.10;;;;;;5017812;28;20037;-66
2023/08/19 10:16:59;;;;;;;9.50;7.00;;;26.60;95.40;;;;;;5012974;28;20176;-65
2023/08/19 10:19:25;;;;;;;10.85;7.68;;;26.50;95.40;;;;;;5002822;28;20443;-67
2023/08/19 10:21:51;;;;;;;8.82;7.55;;;26.50;95.20;;;;;;5018278;28;20036;-67
2023/08/19 10:24:16;;;;;;;9.10;7.10;;;26.60;95.30;;;;;;5000605;28;20175;-64
2023/08/19 10:26:47;;;;;;;10.88;8.07;;;26.60;95.40;;;;;;5046492;28;20053;-76
2023/08/19 10:29:13;;;;;;;11.55;7.03;;;26.70;95.80;;;;;;4989630;28;20049;-73
2023/08/19 10:31:40;;;;;;;12.55;7.97;;;26.60;95.60;;;;;;5010242;28;20044;-65
2023/08/19 10:34:28;;;;;;;10.68;7.53;;;26.50;95.70;;;;;;5015711;28;20053;-65
2023/08/19 10:37:07;;;;;;;9.45;7.43;;;26.90;95.80;;;;;;4983297;28;20049;-77
2023/08/19 10:39:33;;;;;;;12.35;7.72;;;26.70;95.70;;;;;;5014592;28;20056;-73
2023/08/19 10:41:59;;;;;;;8.35;6.85;;;26.80;95.40;;;;;;5030293;28;20045;-64
2023/08/19 10:44:31;;;;;;;11.50;7.47;;;26.70;95.30;;;;;;5032137;28;20048;-63
2023/08/19 10:47:10;;;;;;;10.02;7.70;;;27.00;95.30;;;;;;5013025;28;20525;-64
2023/08/19 10:49:36;;;;;;;12.93;7.60;;;26.90;95.50;;;;;;5031370;28;20411;-74
2023/08/19 10:52:05;;;;;;;12.07;8.45;;;26.80;95.20;;;;;;5012644;28;20132;-70
2023/08/19 10:54:35;;;;;;;11.38;7.57;;;26.80;94.90;;;;;;5033296;28;20057;-71
2023/08/19 10:57:23;;;;;;;11.95;7.93;;;26.90;95.40;;;;;;5033309;28;20049;-68
2023/08/19 10:59:56;;;;;;;12.23;7.32;;;27.10;95.40;;;;;;5011631;28;20117;-66
2023/08/19 11:02:22;;;;;;;11.35;7.43;;;27.00;95.30;;;;;;5028610;28;20045;-63
2023/08/19 11:04:49;;;;;;;10.85;8.20;;;27.00;95.10;;;;;;5029299;28;20462;-62
2023/08/19 11:07:15;;;;;;;10.02;7.60;;;27.00;95.20;;;;;;5033672;28;20787;-66
2023/08/19 11:09:43;;;;;;;13.25;8.60;;;26.80;95.00;;;;;;5030929;28;20133;-69
2023/08/19 11:12:10;;;;;;;9.35;7.93;;;27.00;95.10;;;;;;5014256;28;20045;-65
2023/08/19 11:14:37;;;;;;;14.20;7.93;;;26.90;95.00;;;;;;5031919;28;20596;-62
2023/08/19 11:17:03;;;;;;;10.20;7.82;;;26.90;94.80;;;;;;5027757;28;20041;-63
2023/08/19 11:19:30;;;;;;;12.93;8.30;;;27.00;94.70;;;;;;5031807;28;20395;-63
2023/08/19 11:21:57;;;;;;;10.85;7.93;;;26.80;94.70;;;;;;5029699;28;20064;-71
2023/08/19 11:24:32;;;;;;;12.32;8.80;;;26.90;94.80;;;;;;5015879;28;20485;-63
2023/08/19 11:26:59;;;;;;;12.80;8.18;;;26.80;95.20;;;;;;4993882;28;20105;-69
2023/08/19 11:29:24;;;;;;;12.85;8.02;;;26.70;95.10;;;;;;5014741;28;20418;-66
2023/08/19 11:31:50;;;;;;;9.65;8.23;;;26.90;95.40;;;;;;5028385;28;20060;-63
2023/08/19 11:34:16;;;;;;;11.82;8.65;;;26.50;95.60;;;;;;5030386;28;20128;-67
2023/08/19 11:36:43;;;;;;;16.23;9.10;;;26.70;95.90;;;;;;5051299;28;20111;-64
2023/08/19 11:39:09;;;;;;;13.57;9.10;;;26.70;96.50;;;;;;5033195;28;20199;-62
2023/08/19 11:41:35;;;;;;;14.15;9.88;;;26.30;96.80;;;;;;5053520;28;20049;-63
2023/08/19 11:44:02;;;;;;;15.43;9.32;;;26.50;97.30;;;;;;5031542;28;20090;-64
2023/08/19 11:46:31;;;;;;;12.38;8.88;;;26.60;97.60;;;;;;5042139;28;20119;-65
2023/08/19 11:48:58;;;;;;;11.93;9.57;;;26.30;97.80;;;;;;5002574;28;20126;-66
2023/08/19 11:51:26;;;;;;;12.25;8.95;;;26.40;98.10;;;;;;5019562;28;20489;-67
2023/08/19 11:53:53;;;;;;;20.90;9.75;;;26.30;97.90;;;;;;5010146;28;20041;-69
2023/08/19 11:56:20;;;;;;;19.77;9.30;;;26.30;98.00;;;;;;5002372;28;20051;-67
2023/08/19 11:58:50;;;;;;;16.92;9.38;;;26.30;98.10;;;;;;5050584;28;20045;-68
2023/08/19 12:01:20;;;;;;;15.35;8.45;;;26.30;98.40;;;;;;5022518;28;20154;-66
2023/08/19 12:03:48;;;;;;;18.55;8.73;;;26.10;98.30;;;;;;5053128;28;20450;-65
2023/08/19 12:06:14;;;;;;;15.23;8.57;;;26.10;98.30;;;;;;5054277;28;20041;-69
2023/08/19 12:08:41;;;;;;;15.57;8.60;;;26.20;98.20;;;;;;5053345;28;20080;-71
2023/08/19 12:11:08;;;;;;;11.20;7.55;;;26.20;98.30;;;;;;5052934;28;20048;-68
2023/08/19 12:13:34;;;;;;;12.15;7.88;;;26.40;98.30;;;;;;5050511;28;20128;-64
2023/08/19 12:15:59;;;;;;;12.93;8.20;;;26.10;98.10;;;;;;5062251;28;20119;-64
2023/08/19 12:18:25;;;;;;;14.50;8.85;;;26.30;98.10;;;;;;5054220;28;20409;-68
2023/08/19 12:20:52;;;;;;;15.35;8.30;;;26.30;98.10;;;;;;5062979;28;20041;-66
2023/08/19 12:23:18;;;;;;;8.70;7.57;;;26.20;98.00;;;;;;5051334;28;20483;-67
2023/08/19 12:25:57;;;;;;;12.40;7.60;;;26.20;97.90;;;;;;5035942;28;20479;-67
2023/08/19 12:28:24;;;;;;;12.50;7.97;;;26.10;98.20;;;;;;5035317;28;20096;-64
2023/08/19 12:30:50;;;;;;;10.57;6.95;;;26.30;98.00;;;;;;5032993;28;20056;-67